Time;durP1;ratioP1;P1;durP2;ratioP2;P2;SDS_P1;SDS_P2;PMS_P1;PMS_P2;Temp;Humidity;BMP_temperature;BMP_pressure;BME280_temperature;BME280_humidity;BME280_pressure;Samples;Min_cycle;Max_cycle;Signal;HPM_P1;HPM_P2
2023/04/06 00:01:14;;;;;;;5.28;4.05;;;;;;;5.25;56.28;99153.97;5004355;28;20033;-86
2023/04/06 00:03:40;;;;;;;9.00;4.53;;;;;;;5.22;55.66;99153.63;5003762;28;20411;-86
2023/04/06 00:06:05;;;;;;;7.88;4.72;;;;;;;5.16;56.32;99158.06;5004532;28;20017;-86
2023/04/06 00:08:31;;;;;;;6.32;4.15;;;;;;;5.09;56.60;99143.25;5004245;28;20028;-85
2023/04/06 00:10:56;;;;;;;6.75;4.25;;;;;;;5.09;56.51;99153.94;5003856;28;20063;-85
2023/04/06 00:13:22;;;;;;;5.90;4.47;;;;;;;5.09;56.47;99148.59;5003457;28;20391;-85
2023/04/06 00:15:47;;;;;;;5.20;4.35;;;;;;;5.11;56.37;99151.84;5003525;28;20499;-87
2023/04/06 00:18:13;;;;;;;8.57;4.68;;;;;;;5.07;56.85;99146.97;5003354;28;20434;-87
2023/04/06 00:20:38;;;;;;;5.43;4.30;;;;;;;5.02;56.74;99144.19;5004445;28;20032;-87
2023/04/06 00:23:04;;;;;;;5.78;4.18;;;;;;;5.12;56.37;99145.44;5003585;28;20033;-86
2023/04/06 00:25:30;;;;;;;5.65;4.22;;;;;;;5.01;58.03;99144.44;5001483;28;20029;-85
2023/04/06 00:27:55;;;;;;;6.85;4.55;;;;;;;5.04;56.85;99139.44;5020214;28;20025;-85
2023/04/06 00:30:21;;;;;;;6.78;4.57;;;;;;;4.98;57.75;99127.03;5003388;28;20044;-85
2023/04/06 00:32:46;;;;;;;6.22;4.57;;;;;;;5.11;56.91;99136.63;5010634;28;20384;-86
2023/04/06 00:35:12;;;;;;;5.03;3.95;;;;;;;5.05;57.70;99126.91;5004512;28;20091;-86
2023/04/06 00:37:37;;;;;;;6.03;4.18;;;;;;;5.15;56.68;99129.75;5003651;28;20025;-85
2023/04/06 00:40:03;;;;;;;6.65;4.47;;;;;;;5.00;57.55;99132.97;5003920;28;20450;-85
2023/04/06 00:42:28;;;;;;;7.22;4.88;;;;;;;4.90;57.42;99118.59;5010639;28;20021;-86
2023/04/06 00:44:58;;;;;;;6.65;4.78;;;;;;;4.82;58.04;99122.47;5020612;28;20029;-86
2023/04/06 00:47:27;;;;;;;6.50;4.63;;;;;;;4.81;58.14;99113.63;5019336;28;20024;-86
2023/04/06 00:49:53;;;;;;;5.97;4.68;;;;;;;4.73;57.60;99116.69;5003320;28;20045;-85
2023/04/06 00:52:19;;;;;;;8.25;4.43;;;;;;;4.76;57.31;99121.53;5003578;28;20112;-86
2023/04/06 00:54:44;;;;;;;5.20;4.03;;;;;;;4.83;58.03;99118.72;5000071;28;20057;-85
2023/04/06 00:57:11;;;;;;;6.65;5.15;;;;;;;4.74;58.30;99112.16;5005847;28;20013;-87
2023/04/06 00:59:37;;;;;;;6.05;4.60;;;;;;;4.86;57.41;99120.94;5007722;28;20021;-86
2023/04/06 01:02:02;;;;;;;5.45;4.38;;;;;;;4.81;57.10;99107.50;5020274;28;20025;-86
2023/04/06 01:04:28;;;;;;;6.53;4.55;;;;;;;4.69;57.73;99088.03;5006692;28;20017;-85
2023/04/06 01:06:53;;;;;;;5.72;4.15;;;;;;;4.71;57.33;99102.78;5006574;28;20021;-86
2023/04/06 01:09:19;;;;;;;10.32;4.90;;;;;;;4.72;57.45;99103.59;5007148;28;20471;-86
2023/04/06 01:11:44;;;;;;;7.65;4.72;;;;;;;4.58;57.92;99093.19;5006756;28;20029;-87
2023/04/06 01:14:10;;;;;;;5.10;3.75;;;;;;;4.41;58.41;99094.97;5007200;28;20384;-86
2023/04/06 01:16:35;;;;;;;8.98;5.35;;;;;;;4.46;57.77;99105.72;5007315;28;20404;-86
2023/04/06 01:19:01;;;;;;;6.85;4.65;;;;;;;4.29;59.51;99081.66;5007666;28;20103;-86
2023/04/06 01:21:27;;;;;;;8.07;5.05;;;;;;;4.44;59.40;99094.47;5007091;28;20079;-86
2023/04/06 01:23:52;;;;;;;9.43;5.22;;;;;;;4.37;61.00;99086.63;5007544;28;20024;-86
2023/04/06 01:26:18;;;;;;;7.13;5.10;;;;;;;4.43;60.18;99091.00;5007387;28;20029;-86
2023/04/06 01:28:44;;;;;;;7.07;5.10;;;;;;;4.37;61.62;99088.47;5005039;28;20475;-86
2023/04/06 01:31:10;;;;;;;6.43;4.88;;;;;;;4.24;61.32;99082.34;5022247;28;20021;-86
2023/04/06 01:33:35;;;;;;;5.55;4.32;;;;;;;4.34;60.04;99079.09;5006106;28;20025;-85
2023/04/06 01:36:01;;;;;;;8.38;5.18;;;;;;;4.47;61.08;99080.69;5002873;28;20099;-85
2023/04/06 01:38:26;;;;;;;9.63;6.32;;;;;;;4.29;62.02;99080.84;5006600;28;20040;-86
2023/04/06 01:40:53;;;;;;;10.80;6.10;;;;;;;4.21;62.25;99076.69;5006828;28;20060;-86
2023/04/06 01:43:18;;;;;;;7.50;5.45;;;;;;;4.11;62.80;99063.13;5006176;28;20037;-86
2023/04/06 01:45:44;;;;;;;7.60;5.55;;;;;;;4.13;62.63;99067.22;5006009;28;20044;-86
2023/04/06 01:48:09;;;;;;;8.52;5.97;;;;;;;4.13;63.33;99071.72;5003252;28;20122;-86
2023/04/06 01:50:35;;;;;;;9.73;5.70;;;;;;;4.00;64.37;99067.44;5001183;28;20064;-86
2023/04/06 01:53:01;;;;;;;10.45;5.10;;;;;;;4.06;64.56;99069.16;5004940;28;20017;-86
2023/04/06 01:55:26;;;;;;;10.05;5.93;;;;;;;4.08;64.72;99074.28;5006450;28;20028;-86
2023/04/06 01:57:51;;;;;;;9.65;5.88;;;;;;;4.11;64.94;99071.97;5007270;28;20021;-86
2023/04/06 02:00:17;;;;;;;7.53;5.45;;;;;;;4.05;64.44;99063.03;5006228;28;20475;-86
2023/04/06 02:02:42;;;;;;;11.43;6.32;;;;;;;3.93;64.83;99082.75;5006121;28;20402;-86
2023/04/06 02:05:08;;;;;;;8.00;5.68;;;;;;;3.94;65.96;99065.69;5007428;28;20032;-86
2023/04/06 02:07:34;;;;;;;9.40;5.53;;;;;;;3.99;65.05;99073.81;5002270;28;20034;-85
2023/04/06 02:09:59;;;;;;;7.90;5.00;;;;;;;4.00;65.75;99072.75;5017993;28;20044;-87
2023/04/06 02:12:25;;;;;;;7.90;5.70;;;;;;;3.98;66.19;99074.84;5005611;28;20136;-87
2023/04/06 02:14:51;;;;;;;6.50;5.00;;;;;;;3.84;65.49;99067.09;5022376;28;20021;-87
2023/04/06 02:17:16;;;;;;;7.00;5.35;;;;;;;3.84;65.46;99067.09;5022497;28;20442;-86
2023/04/06 02:19:41;;;;;;;8.77;5.43;;;;;;;3.84;66.05;99056.47;5022055;28;20506;-85
2023/04/06 02:22:07;;;;;;;7.20;5.20;;;;;;;3.92;65.31;99059.78;5005090;28;20411;-87
2023/04/06 02:24:32;;;;;;;6.88;4.97;;;;;;;3.91;65.10;99045.69;5005549;28;20498;-85
2023/04/06 02:26:58;;;;;;;7.70;5.43;;;;;;;3.87;64.67;99046.38;5005793;28;20044;-86
2023/04/06 02:29:23;;;;;;;6.65;5.10;;;;;;;3.77;65.28;99052.28;5005803;28;20017;-86
2023/04/06 02:31:49;;;;;;;7.53;5.53;;;;;;;3.95;65.27;99059.34;5039381;28;20044;-86
2023/04/06 02:34:17;;;;;;;7.90;5.28;;;;;;;3.91;65.89;99045.69;5004965;28;20033;-86
2023/04/06 02:36:46;;;;;;;7.97;5.28;;;;;;;3.91;65.83;99039.56;5022330;28;20409;-86
2023/04/06 02:39:12;;;;;;;7.07;4.90;;;;;;;3.94;65.52;99041.72;5039064;28;20021;-86
2023/04/06 02:41:37;;;;;;;5.93;5.10;;;;;;;3.91;65.71;99036.88;5006405;28;20024;-86
2023/04/06 02:44:03;;;;;;;7.65;5.60;;;;;;;3.92;65.64;99034.00;5005422;28;20024;-86
2023/04/06 02:46:28;;;;;;;7.82;5.30;;;;;;;4.08;65.77;99048.44;5005684;28;20110;-86
2023/04/06 02:48:54;;;;;;;7.70;5.10;;;;;;;3.99;64.88;99029.34;4995173;28;20427;-86
2023/04/06 02:51:20;;;;;;;5.68;4.60;;;;;;;3.97;64.77;99026.09;5001976;28;20104;-86
2023/04/06 02:53:46;;;;;;;6.45;4.57;;;;;;;4.14;64.80;99036.03;5001709;28;20021;-87
2023/04/06 02:56:11;;;;;;;7.50;5.40;;;;;;;4.21;64.01;99047.38;4991042;28;20024;-86
2023/04/06 02:58:36;;;;;;;8.55;4.90;;;;;;;4.12;64.59;99033.59;4986241;28;20025;-86
2023/04/06 03:01:03;;;;;;;7.63;5.57;;;;;;;4.09;64.21;99033.25;5002176;28;20033;-86
2023/04/06 03:03:28;;;;;;;6.60;5.13;;;;;;;4.10;64.49;99037.56;4987645;28;20456;-86
2023/04/06 03:05:56;;;;;;;8.05;5.20;;;;;;;4.05;65.27;99033.75;4989455;28;20029;-86
2023/04/06 03:08:21;;;;;;;9.18;5.55;;;;;;;4.07;64.38;99035.34;5000878;28;20022;-87
2023/04/06 03:10:47;;;;;;;8.48;5.40;;;;;;;4.17;63.04;99040.88;5018298;28;20021;-86
2023/04/06 03:13:12;;;;;;;7.15;5.15;;;;;;;4.29;61.61;99033.69;4985527;28;20446;-86
2023/04/06 03:15:38;;;;;;;7.22;5.28;;;;;;;4.33;60.72;99034.81;5001837;28;20028;-86
2023/04/06 03:18:03;;;;;;;6.65;4.50;;;;;;;4.44;60.69;99043.84;4985648;28;20376;-85
2023/04/06 03:20:29;;;;;;;5.85;4.82;;;;;;;4.33;60.13;99013.50;4985123;28;20108;-85
2023/04/06 03:22:54;;;;;;;9.10;5.32;;;;;;;4.49;60.95;99037.81;5017617;28;20083;-86
2023/04/06 03:25:20;;;;;;;5.72;4.47;;;;;;;4.43;59.99;99045.69;4983849;28;20464;-86
2023/04/06 03:27:45;;;;;;;6.72;4.30;;;;;;;4.49;60.80;99051.94;5007214;28;20076;-85
2023/04/06 03:30:11;;;;;;;6.28;4.57;;;;;;;4.45;60.67;99043.59;5008811;28;20048;-86
2023/04/06 03:32:36;;;;;;;6.13;4.90;;;;;;;4.50;60.17;99044.75;4983886;28;20059;-87
2023/04/06 03:35:02;;;;;;;6.80;4.75;;;;;;;4.48;60.17;99036.97;4992894;28;20037;-86
2023/04/06 03:37:27;;;;;;;7.32;4.68;;;;;;;4.47;60.69;99042.56;5017219;28;20025;-85
2023/04/06 03:39:53;;;;;;;6.63;4.78;;;;;;;4.51;60.71;99035.72;4984829;28;20025;-86
2023/04/06 03:42:18;;;;;;;6.00;4.72;;;;;;;4.56;60.58;99046.47;4993051;28;20087;-85
2023/04/06 03:44:44;;;;;;;9.45;5.35;;;;;;;4.55;60.98;99044.88;5001397;28;20053;-86
2023/04/06 03:47:09;;;;;;;8.50;4.90;;;;;;;4.58;60.08;99045.19;4984567;28;20021;-84
2023/04/06 03:49:35;;;;;;;7.03;5.03;;;;;;;4.56;60.20;99033.13;5012990;28;20050;-84
2023/04/06 03:52:01;;;;;;;7.90;5.35;;;;;;;4.72;60.78;99047.59;5022178;28;20021;-86
2023/04/06 03:54:26;;;;;;;7.90;4.97;;;;;;;4.54;59.63;99025.38;5038631;28;20013;-90
2023/04/06 03:56:52;;;;;;;13.75;5.10;;;;;;;4.62;59.84;99043.66;5001295;28;20271;-85
2023/04/06 03:59:17;;;;;;;7.95;5.60;;;;;;;4.60;59.87;99043.09;5001155;28;20021;-88
2023/04/06 04:01:43;;;;;;;8.75;5.50;;;;;;;4.60;60.14;99042.28;5005931;28;20033;-86
2023/04/06 04:04:08;;;;;;;8.73;5.75;;;;;;;4.66;60.42;99044.81;4984223;28;20480;-86
2023/04/06 04:06:36;;;;;;;9.40;5.80;;;;;;;4.69;60.52;99042.72;4987017;28;20084;-87
2023/04/06 04:09:01;;;;;;;9.48;6.22;;;;;;;4.62;61.11;99034.84;4994668;28;20028;-87
2023/04/06 04:11:27;;;;;;;7.40;5.72;;;;;;;4.65;61.09;99040.53;5016844;28;20056;-88
2023/04/06 04:13:53;;;;;;;11.13;5.75;;;;;;;4.81;61.20;99052.28;5002226;28;20032;-88
2023/04/06 04:16:18;;;;;;;8.43;5.90;;;;;;;4.74;60.98;99035.63;5000450;28;20111;-86
2023/04/06 04:18:45;;;;;;;15.15;6.57;;;;;;;4.75;61.41;99050.59;5002617;28;20052;-87
2023/04/06 04:21:10;;;;;;;10.55;6.10;;;;;;;4.85;61.03;99042.75;5004214;28;20104;-85
2023/04/06 04:23:36;;;;;;;9.27;5.93;;;;;;;4.81;60.81;99028.28;5003254;28;20021;-86
2023/04/06 04:26:02;;;;;;;9.07;5.97;;;;;;;4.71;61.99;99040.63;5004317;28;20021;-86
2023/04/06 04:28:41;;;;;;;11.98;7.60;;;;;;;4.75;61.58;99045.25;5001669;28;20030;-86
2023/04/06 04:31:06;;;;;;;11.80;6.50;;;;;;;4.85;61.71;99040.09;4995709;28;20053;-86
2023/04/06 04:33:32;;;;;;;12.80;9.00;;;;;;;4.84;61.31;99046.47;5009676;28;20028;-86
2023/04/06 04:35:57;;;;;;;9.48;6.38;;;;;;;4.92;61.16;99039.97;5022936;28;20026;-87
2023/04/06 04:38:23;;;;;;;17.00;8.43;;;;;;;5.12;60.96;99044.81;5008426;28;20056;-87
2023/04/06 04:40:49;;;;;;;12.32;7.07;;;;;;;5.38;60.54;99056.75;5003839;28;20043;-86
2023/04/06 04:43:14;;;;;;;8.50;6.15;;;;;;;5.44;59.85;99046.97;5007684;28;20021;-87
2023/04/06 04:45:40;;;;;;;12.75;9.18;;;;;;;5.44;59.32;99033.63;5041154;28;20059;-86
2023/04/06 04:48:06;;;;;;;8.60;6.53;;;;;;;5.49;60.15;99046.25;5008606;28;20056;-86
2023/04/06 04:50:34;;;;;;;14.13;8.07;;;;;;;5.43;59.66;99013.31;5009355;28;20088;-88
2023/04/06 04:53:00;;;;;;;15.65;8.00;;;;;;;5.54;58.97;99023.09;5025069;28;20028;-88
2023/04/06 04:55:25;;;;;;;13.25;8.07;;;;;;;5.74;58.98;99043.16;5007917;28;20119;-88
2023/04/06 04:57:51;;;;;;;22.45;11.73;;;;;;;5.70;58.85;99037.47;5007724;28;20483;-87
2023/04/06 05:00:17;;;;;;;10.05;7.07;;;;;;;5.63;58.34;99026.97;5024629;28;20036;-88
2023/04/06 05:02:43;;;;;;;13.30;7.43;;;;;;;5.65;58.57;99037.41;5007664;28;20036;-87
2023/04/06 05:05:09;;;;;;;18.67;9.13;;;;;;;5.81;58.53;99035.75;5001928;28;20025;-88
2023/04/06 05:07:34;;;;;;;18.42;9.18;;;;;;;6.05;57.95;99045.22;5007756;28;20495;-88
2023/04/06 05:11:04;;;;;;;9.73;6.78;;;;;;;6.21;57.12;99053.44;5007156;28;20029;-87
2023/04/06 05:13:31;;;;;;;11.02;5.82;;;;;;;6.32;55.88;99041.81;4979485;28;20077;-89
2023/04/06 05:15:56;;;;;;;10.35;7.00;;;;;;;6.21;55.35;99040.09;5000588;28;20494;-90
2023/04/06 05:18:22;;;;;;;9.27;6.00;;;;;;;6.29;55.57;99039.66;5004664;28;20025;-88
2023/04/06 05:20:47;;;;;;;12.48;8.43;;;;;;;6.39;56.04;99034.44;5004856;28;20025;-89
2023/04/06 05:23:13;;;;;;;10.20;6.95;;;;;;;6.48;55.68;99032.91;5008766;28;20116;-87
2023/04/06 05:25:39;;;;;;;7.90;5.78;;;;;;;6.51;55.54;99036.97;5003949;28;20028;-89
2023/04/06 05:28:04;;;;;;;91.95;52.42;;;;;;;6.66;55.51;99034.47;5006674;28;20477;-91
2023/04/06 05:30:30;;;;;;;160.07;57.95;;;;;;;6.55;55.66;99014.00;5012493;28;20509;-92
2023/04/06 05:32:58;;;;;;;11.90;8.60;;;;;;;6.63;55.29;99028.81;5024660;28;20115;-91
2023/04/06 05:35:24;;;;;;;11.98;6.60;;;;;;;6.64;55.25;99028.56;5012593;28;20028;-92
2023/04/06 05:37:50;;;;;;;10.90;7.25;;;;;;;6.62;55.79;99014.63;5009649;28;20082;-89
2023/04/06 05:40:15;;;;;;;14.15;7.63;;;;;;;6.84;55.93;99035.97;5007726;28;20020;-88
2023/04/06 05:42:51;;;;;;;11.20;7.00;;;;;;;6.85;53.95;99028.78;5039605;28;20025;-88
2023/04/06 05:45:52;;;;;;;8.10;5.45;;;;;;;6.97;53.16;99047.34;5002607;28;20537;-88
2023/04/06 05:48:20;;;;;;;8.63;6.22;;;;;;;6.84;53.96;99029.81;4970399;28;20078;-91
2023/04/06 05:50:53;;;;;;;13.98;7.05;;;;;;;6.90;54.19;99028.81;4997704;28;20041;-93
2023/04/06 05:53:20;;;;;;;23.60;10.07;;;;;;;6.81;54.61;98995.56;4994805;28;20076;-92
2023/04/06 05:56:12;;;;;;;11.30;7.03;;;;;;;7.02;53.82;99024.13;5008932;28;20036;-91
2023/04/06 05:58:37;;;;;;;14.23;7.63;;;;;;;6.67;54.52;98995.16;5024498;28;20009;-90
2023/04/06 06:01:06;;;;;;;8.70;5.45;;;;;;;6.79;54.29;99016.41;4991799;28;20416;-88
2023/04/06 06:03:31;;;;;;;10.75;7.30;;;;;;;6.82;53.87;99002.50;5011825;28;20048;-89
2023/04/06 06:06:01;;;;;;;9.32;5.70;;;;;;;6.80;52.96;99001.97;5014764;28;20032;-90
2023/04/06 06:08:27;;;;;;;11.57;5.53;;;;;;;6.81;52.19;99003.59;5011231;28;20059;-88
2023/04/06 06:10:53;;;;;;;6.55;5.15;;;;;;;6.63;52.36;98994.03;5010014;28;20045;-90
2023/04/06 06:13:18;;;;;;;9.90;5.50;;;;;;;6.84;53.13;99019.91;5016125;28;20056;-91
2023/04/06 06:15:44;;;;;;;7.82;5.68;;;;;;;6.73;52.31;98998.69;5026646;28;20100;-92
2023/04/06 06:18:11;;;;;;;9.43;5.65;;;;;;;6.86;53.80;99008.97;4998514;28;20021;-94
2023/04/06 06:20:36;;;;;;;47.53;26.00;;;;;;;6.86;52.94;98992.91;4995388;28;20484;-93
2023/04/06 06:23:02;;;;;;;9.10;6.50;;;;;;;6.97;52.32;99000.00;5015616;28;20095;-94
2023/04/06 06:25:30;;;;;;;15.48;6.70;;;;;;;7.08;52.66;99000.88;5015745;28;20083;-91
2023/04/06 06:27:56;;;;;;;8.38;5.63;;;;;;;7.25;50.42;99020.31;5018258;28;20061;-93
2023/04/06 06:30:24;;;;;;;8.80;6.28;;;;;;;6.86;51.69;98999.06;5007552;28;20029;-94
2023/04/06 06:32:50;;;;;;;9.00;5.70;;;;;;;6.98;51.12;98998.13;5004816;28;20063;-89
2023/04/06 06:35:15;;;;;;;8.57;5.28;;;;;;;7.07;50.36;99018.78;5015652;28;20116;-93
2023/04/06 06:37:57;;;;;;;8.52;5.28;;;;;;;7.17;49.75;99019.97;4997517;28;20064;-88
2023/04/06 06:43:34;;;;;;;7.07;5.15;;;;;;;6.87;49.80;98989.19;4985315;28;20540;-88
2023/04/06 06:46:00;;;;;;;7.25;5.13;;;;;;;6.92;50.28;99029.38;4966550;28;20048;-90
2023/04/06 06:48:28;;;;;;;7.43;4.80;;;;;;;6.96;49.88;99010.94;4972629;28;20045;-94
2023/04/06 06:50:54;;;;;;;10.35;4.93;;;;;;;6.74;50.36;99002.97;4995637;28;20101;-92
2023/04/06 06:53:23;;;;;;;7.88;5.35;;;;;;;6.88;51.12;98993.47;4995001;28;20037;-95
2023/04/06 06:55:49;;;;;;;9.63;4.85;;;;;;;6.93;50.22;99006.09;4980960;28;20049;-92
2023/04/06 06:58:17;;;;;;;7.15;4.47;;;;;;;6.92;50.00;98997.25;4977324;28;20037;-94
2023/04/06 07:00:43;;;;;;;8.95;4.82;;;;;;;6.75;51.17;99016.09;4987091;28;20092;-91
2023/04/06 07:03:10;;;;;;;6.72;4.57;;;;;;;6.90;49.97;99001.25;4978290;28;20038;-92
2023/04/06 07:05:36;;;;;;;10.07;4.72;;;;;;;6.93;50.33;99009.59;4973437;28;20466;-91
2023/04/06 07:08:01;;;;;;;9.55;6.28;;;;;;;6.96;50.66;99009.06;4991581;28;20036;-91
2023/04/06 07:10:27;;;;;;;15.35;11.45;;;;;;;7.06;50.91;98990.44;4996221;28;20104;-95
2023/04/06 07:12:53;;;;;;;12.18;7.85;;;;;;;7.25;50.17;98998.09;4976347;28;20044;-94
2023/04/06 07:15:18;;;;;;;18.77;10.93;;;;;;;7.48;49.87;98992.34;4975462;28;20029;-94
2023/04/06 07:17:47;;;;;;;11.57;6.20;;;;;;;7.49;50.09;99001.19;4994215;28;20218;-95
2023/04/06 07:20:13;;;;;;;10.13;5.30;;;;;;;7.76;49.10;99017.19;5015039;28;20027;-95
2023/04/06 07:22:40;;;;;;;6.13;4.68;;;;;;;7.30;48.44;98987.41;5014993;28;20028;-94
2023/04/06 07:25:07;;;;;;;7.60;4.75;;;;;;;7.18;49.17;98981.41;5027028;28;20025;-95
2023/04/06 07:27:32;;;;;;;11.25;7.00;;;;;;;7.52;48.43;98992.66;5013469;28;20074;-93
2023/04/06 07:29:58;;;;;;;8.05;5.38;;;;;;;7.67;47.77;99002.66;5011823;28;20028;-96
2023/04/06 07:32:31;;;;;;;11.25;5.53;;;;;;;7.25;49.23;98993.53;5014580;28;20037;-96
2023/04/06 07:34:58;;;;;;;8.80;5.38;;;;;;;7.51;48.88;99008.97;5027691;28;20108;-88
2023/04/06 07:37:23;;;;;;;12.73;6.50;;;;;;;7.43;48.56;98986.16;5014384;28;20063;-96
2023/04/06 07:39:53;;;;;;;9.18;4.95;;;;;;;7.64;48.94;98989.78;5016687;28;20045;-95
2023/04/06 07:42:19;;;;;;;9.90;5.45;;;;;;;7.71;49.17;98979.63;5014277;28;20028;-91
2023/04/06 07:44:47;;;;;;;8.98;5.38;;;;;;;7.85;47.85;98972.75;5012089;28;20040;-94
2023/04/06 07:47:17;;;;;;;13.18;6.03;;;;;;;8.13;47.07;98989.50;5013509;28;20155;-92
2023/04/06 07:49:43;;;;;;;9.10;5.25;;;;;;;8.27;46.52;98979.91;5000270;28;20057;-91
2023/04/06 07:52:11;;;;;;;6.95;5.38;;;;;;;8.19;46.25;98974.25;4995379;28;20026;-94
2023/04/06 07:54:37;;;;;;;14.95;5.97;;;;;;;8.39;46.58;99000.34;4994442;28;20057;-95
2023/04/06 07:57:02;;;;;;;10.82;6.28;;;;;;;8.24;48.22;98979.63;4993571;28;20047;-95
2023/04/06 07:59:28;;;;;;;6.95;4.30;;;;;;;8.32;47.64;98989.03;4997529;28;20026;-92
2023/04/06 08:01:56;;;;;;;8.57;5.03;;;;;;;8.53;46.00;98985.41;4995106;28;20049;-96
2023/04/06 08:04:22;;;;;;;7.93;4.43;;;;;;;8.60;45.80;98977.09;4992692;28;20068;-88
2023/04/06 08:06:47;;;;;;;7.38;5.20;;;;;;;8.75;45.65;98992.41;4992436;28;20030;-88
2023/04/06 08:09:13;;;;;;;10.00;5.40;;;;;;;8.71;45.99;98984.06;4991062;28;20029;-87
2023/04/06 08:11:39;;;;;;;6.85;4.75;;;;;;;8.84;44.82;98978.22;4986090;28;20053;-87
2023/04/06 08:14:05;;;;;;;9.35;4.97;;;;;;;8.88;44.70;98997.25;5004941;28;20029;-88
2023/04/06 08:16:30;;;;;;;8.88;4.50;;;;;;;8.73;44.54;98986.50;4992263;28;20035;-88
2023/04/06 08:18:56;;;;;;;8.52;4.93;;;;;;;8.84;44.64;98972.00;4991785;28;20040;-88
2023/04/06 08:21:21;;;;;;;4.93;3.88;;;;;;;8.71;44.12;98984.06;4996625;28;20065;-87
2023/04/06 08:23:51;;;;;;;6.85;4.50;;;;;;;8.78;44.35;98998.06;5009075;28;20029;-91
2023/04/06 08:26:16;;;;;;;8.70;4.38;;;;;;;8.62;44.22;98986.47;5009186;28;20495;-88
2023/04/06 08:28:46;;;;;;;11.88;6.47;;;;;;;8.61;44.29;98979.50;4994543;28;20025;-90
2023/04/06 08:35:41;;;;;;;7.32;4.28;;;;;;;8.96;43.21;98996.72;4932042;29;20067;-94
2023/04/06 08:38:07;;;;;;;7.22;4.70;;;;;;;8.65;45.50;98972.53;4915684;29;20158;-96
2023/04/06 08:40:39;;;;;;;10.25;7.63;;;;;;;8.88;44.69;98965.03;4912455;29;20082;-96
2023/04/06 08:43:08;;;;;;;10.50;5.13;;;;;;;9.14;44.25;98986.53;4966806;28;20097;-92
2023/04/06 08:45:34;;;;;;;6.55;4.47;;;;;;;9.07;43.70;98970.72;4958994;28;20062;-94
2023/04/06 08:48:01;;;;;;;8.82;5.78;;;;;;;9.44;42.96;99008.03;4976118;28;20077;-93
2023/04/06 08:50:31;;;;;;;7.45;5.10;;;;;;;9.33;43.64;98992.97;4998721;28;20029;-95
2023/04/06 08:52:57;;;;;;;9.52;5.35;;;;;;;9.32;45.02;98999.44;4999512;28;20034;-91
2023/04/06 08:55:24;;;;;;;11.90;6.03;;;;;;;9.40;44.54;98998.06;4992787;28;20049;-93
2023/04/06 08:57:53;;;;;;;11.48;4.93;;;;;;;9.55;42.60;99005.34;4997830;28;20041;-96
2023/04/06 09:00:20;;;;;;;7.97;5.72;;;;;;;9.50;43.17;98987.31;5016148;28;20101;-95
2023/04/06 09:02:45;;;;;;;9.55;5.00;;;;;;;9.54;42.96;98995.66;4983382;28;20036;-87
2023/04/06 09:05:11;;;;;;;8.20;4.57;;;;;;;9.53;42.56;98994.06;4983352;28;20037;-88
2023/04/06 09:07:37;;;;;;;11.98;5.53;;;;;;;9.30;43.51;98975.53;5020183;28;20032;-87
2023/04/06 09:10:05;;;;;;;8.80;4.90;;;;;;;9.43;43.35;98984.13;5012174;28;20020;-88
2023/04/06 09:12:31;;;;;;;10.55;5.18;;;;;;;9.63;43.96;98999.38;5026691;28;20063;-90
2023/04/06 09:14:57;;;;;;;9.35;6.00;;;;;;;9.64;43.39;98987.56;5010199;28;20047;-88
2023/04/06 09:17:32;;;;;;;9.73;5.88;;;;;;;9.57;43.12;98987.88;5012243;28;20021;-89
2023/04/06 09:20:12;;;;;;;8.02;5.40;;;;;;;9.41;43.27;98968.25;5011152;28;20096;-90
2023/04/06 09:22:38;;;;;;;12.52;6.03;;;;;;;9.50;42.25;98977.41;5013446;28;20029;-88
2023/04/06 09:25:05;;;;;;;9.80;5.93;;;;;;;9.67;42.92;98965.50;5024970;28;20050;-88
2023/04/06 09:28:00;;;;;;;8.98;5.20;;;;;;;9.93;42.40;98976.22;5008771;28;20053;-88
2023/04/06 09:30:26;;;;;;;32.28;11.63;;;;;;;9.79;42.24;98947.22;5000243;28;20022;-89
2023/04/06 09:33:02;;;;;;;13.82;8.13;;;;;;;10.16;40.72;98962.13;4956725;28;20041;-89
2023/04/06 09:35:31;;;;;;;9.48;5.20;;;;;;;10.23;41.10;98968.03;4954473;28;20037;-87
2023/04/06 09:37:57;;;;;;;7.50;4.82;;;;;;;10.37;40.32;98951.31;4974320;28;20209;-89
2023/04/06 09:40:22;;;;;;;6.38;4.78;;;;;;;10.36;40.27;98955.91;4957739;28;20049;-88
2023/04/06 09:42:54;;;;;;;7.70;4.75;;;;;;;10.44;41.12;98959.91;4948597;28;20129;-87
2023/04/06 09:45:20;;;;;;;9.50;5.70;;;;;;;10.46;40.16;98953.16;4957751;28;20045;-87
2023/04/06 09:47:56;;;;;;;6.15;4.45;;;;;;;10.44;39.49;98951.84;4972523;28;20122;-87
2023/04/06 09:50:24;;;;;;;11.05;6.05;;;;;;;10.82;40.82;98952.91;4970030;28;20037;-93
2023/04/06 09:52:50;;;;;;;6.50;4.50;;;;;;;11.05;39.42;98970.25;4953068;28;20141;-87
2023/04/06 09:55:45;;;;;;;8.15;4.90;;;;;;;11.21;39.25;98956.69;4955334;28;20038;-88
2023/04/06 09:58:15;;;;;;;25.75;9.38;;;;;;;11.15;38.57;98957.81;4953835;28;20404;-89
2023/04/06 10:01:06;;;;;;;9.55;5.13;;;;;;;10.72;39.09;98926.06;4973471;28;20035;-90
2023/04/06 10:04:17;;;;;;;12.85;6.20;;;;;;;11.00;40.02;98962.22;5025637;28;20033;-95
2023/04/06 10:06:47;;;;;;;8.93;4.47;;;;;;;10.69;39.87;98945.47;5013655;28;20030;-94
2023/04/06 10:09:14;;;;;;;12.05;5.93;;;;;;;10.70;38.98;98939.00;5004491;28;20041;-93
2023/04/06 10:11:51;;;;;;;11.48;4.63;;;;;;;11.14;39.44;98956.97;5029202;28;20043;-92
2023/04/06 10:14:17;;;;;;;7.43;4.28;;;;;;;11.13;38.66;98961.56;5026244;28;20502;-89
2023/04/06 10:16:47;;;;;;;7.68;4.38;;;;;;;11.15;38.01;98963.19;5010577;28;20028;-91
2023/04/06 10:19:44;;;;;;;7.75;4.55;;;;;;;10.94;39.02;98928.34;5015697;28;20101;-90
2023/04/06 10:22:11;;;;;;;7.22;4.60;;;;;;;11.32;38.04;98939.31;5044803;28;20096;-90
2023/04/06 10:24:36;;;;;;;7.75;5.13;;;;;;;11.25;39.11;98931.56;5003636;28;20045;-90
2023/04/06 10:27:06;;;;;;;6.68;4.60;;;;;;;11.64;37.65;98952.22;4951875;28;20042;-87
2023/04/06 10:29:48;;;;;;;5.60;3.83;;;;;;;11.57;38.46;98934.75;4948016;28;20070;-89
2023/04/06 10:32:14;;;;;;;11.77;5.18;;;;;;;11.39;39.07;98937.06;4965077;28;20037;-89
2023/04/06 10:34:40;;;;;;;6.38;4.40;;;;;;;11.48;38.70;98943.47;4947372;28;20030;-89
2023/04/06 10:37:13;;;;;;;9.45;4.85;;;;;;;11.75;37.32;98947.53;4949174;28;20158;-90
2023/04/06 10:39:54;;;;;;;6.78;4.28;;;;;;;11.83;38.48;98940.66;4963232;28;20036;-88
2023/04/06 10:42:42;;;;;;;7.72;5.55;;;;;;;11.66;39.01;98952.75;4955237;28;20038;-93
2023/04/06 10:45:33;;;;;;;7.70;4.20;;;;;;;11.75;38.05;98928.63;4953088;28;20034;-94
2023/04/06 10:48:07;;;;;;;8.88;5.13;;;;;;;11.88;37.81;98909.06;4955232;28;20061;-93
2023/04/06 10:50:35;;;;;;;6.93;4.53;;;;;;;12.17;37.96;98920.88;4956303;28;20038;-91
2023/04/06 10:53:25;;;;;;;7.47;4.30;;;;;;;12.12;36.89;98914.47;4980972;28;20034;-93
2023/04/06 10:55:55;;;;;;;7.57;4.38;;;;;;;12.14;37.02;98933.06;4969013;28;20421;-93
2023/04/06 10:58:30;;;;;;;10.98;5.18;;;;;;;12.15;37.73;98918.47;4958820;28;20068;-90
2023/04/06 11:01:04;;;;;;;5.95;4.30;;;;;;;11.96;37.47;98896.06;4965438;28;20107;-90
2023/04/06 11:07:02;;;;;;;;;;;;;;;;;;;;;
2023/04/06 11:09:39;;;;;;;;;;;;;;;;;;;;;
2023/04/06 11:12:30;;;;;;;8.18;4.60;;;;;;;12.36;37.00;98916.28;5000435;28;20052;-88
2023/04/06 11:15:05;;;;;;;26.38;10.73;;;;;;;12.36;36.79;98916.28;5004886;28;20104;-90
2023/04/06 11:17:38;;;;;;;10.70;5.55;;;;;;;12.21;36.59;98903.81;5014147;28;20091;-90
2023/04/06 11:20:14;;;;;;;7.65;5.10;;;;;;;12.06;37.26;98880.53;5008714;28;20033;-90
2023/04/06 11:22:50;;;;;;;8.48;4.63;;;;;;;12.17;37.60;98910.09;5024992;28;20037;-88
2023/04/06 11:25:16;;;;;;;4.93;4.22;;;;;;;12.10;37.35;98905.84;5022404;28;20028;-89
2023/04/06 11:27:43;;;;;;;20.15;6.55;;;;;;;11.74;37.52;98883.84;5022130;28;20026;-86
2023/04/06 11:30:09;;;;;;;7.20;3.90;;;;;;;11.75;37.19;98887.38;5025310;28;20047;-88
2023/04/06 11:32:45;;;;;;;9.48;4.63;;;;;;;11.79;38.38;98883.81;5006443;28;20032;-88
2023/04/06 11:35:22;;;;;;;27.02;9.68;;;;;;;12.32;37.29;98901.75;5023824;28;20051;-88
2023/04/06 11:37:50;;;;;;;5.25;3.13;;;;;;;11.98;37.77;98883.09;5032877;28;20089;-88
2023/04/06 11:40:23;;;;;;;5.97;4.47;;;;;;;12.10;37.68;98894.25;5007516;28;20029;-87
2023/04/06 11:42:53;;;;;;;5.68;4.32;;;;;;;11.96;38.66;98891.47;5009073;28;20487;-88
2023/04/06 11:45:19;;;;;;;5.88;3.92;;;;;;;12.21;38.33;98890.31;5026074;28;20029;-90
2023/04/06 11:47:44;;;;;;;8.95;4.10;;;;;;;12.33;37.79;98893.38;5025466;28;20017;-88
2023/04/06 11:50:14;;;;;;;6.72;3.95;;;;;;;12.03;38.52;98873.00;5008571;28;20037;-89
2023/04/06 11:52:42;;;;;;;;;;;;;;;12.41;38.15;98905.44;5012818;28;20049;-91
2023/04/06 11:55:17;;;;;;;7.65;4.13;;;;;;;11.97;38.79;98893.03;5028971;28;19900;-89
2023/04/06 11:57:43;;;;;;;6.22;4.18;;;;;;;12.10;38.72;98870.75;5012076;28;20487;-89